Time;durP1;ratioP1;P1;durP2;ratioP2;P2;SDS_P1;SDS_P2;PMS_P1;PMS_P2;Temp;Humidity;BMP_temperature;BMP_pressure;BME280_temperature;BME280_humidity;BME280_pressure;Samples;Min_cycle;Max_cycle;Signal;HPM_P1;HPM_P2
2021/11/12 00:13:58;;;;;;;9.48;6.32;;;;;;;;;;4971339;28;20058;-74
2021/11/12 00:16:26;;;;;;;7.85;5.82;;;;;;;;;;4971706;28;20054;-74
2021/11/12 00:18:52;;;;;;;8.20;6.18;;;;;;;;;;4971120;28;20054;-74
2021/11/12 00:21:19;;;;;;;8.35;5.97;;;;;;;;;;4957841;28;20043;-74
2021/11/12 00:23:44;;;;;;;10.40;5.47;;;;;;;;;;4935680;29;20762;-74
2021/11/12 00:26:11;;;;;;;6.20;5.45;;;;;;;;;;4950379;29;20042;-73
2021/11/12 00:28:40;;;;;;;9.32;6.18;;;;;;;;;;4951968;29;20040;-74
2021/11/12 00:33:58;;;;;;;6.15;5.47;;;;;;;;;;4952427;29;20075;-73
2021/11/12 00:36:37;;;;;;;6.22;5.63;;;;;;;;;;4952410;29;20039;-74
2021/11/12 00:41:52;;;;;;;9.50;5.22;;;;;;;;;;4955268;29;20043;-74
2021/11/12 00:46:52;;;;;;;9.57;5.47;;;;;;;;;;4956375;29;20094;-73
2021/11/12 00:49:22;;;;;;;6.97;4.97;;;;;;;;;;4936406;29;20082;-73
2021/11/12 00:51:51;;;;;;;10.73;5.53;;;;;;;;;;4954551;28;20078;-74
2021/11/12 00:54:18;;;;;;;6.90;4.25;;;;;;;;;;4939292;29;20130;-74
2021/11/12 00:56:44;;;;;;;5.35;3.97;;;;;;;;;;4954534;29;20414;-74
2021/11/12 00:59:10;;;;;;;5.80;4.13;;;;;;;;;;4973952;28;20046;-74
2021/11/12 01:01:38;;;;;;;7.25;4.97;;;;;;;;;;4973974;28;20047;-74
2021/11/12 01:04:07;;;;;;;6.97;4.35;;;;;;;;;;4974229;28;20097;-74
2021/11/12 01:06:35;;;;;;;7.97;5.35;;;;;;;;;;4974775;28;20074;-75
2021/11/12 01:09:06;;;;;;;6.72;5.47;;;;;;;;;;4975399;28;20039;-74
2021/11/12 01:11:32;;;;;;;6.90;4.70;;;;;;;;;;4971470;28;20405;-74
2021/11/12 01:13:59;;;;;;;6.00;4.60;;;;;;;;;;4957979;28;20509;-74
2021/11/12 01:16:26;;;;;;;10.85;4.78;;;;;;;;;;4975346;28;20038;-73
2021/11/12 01:18:53;;;;;;;5.35;4.30;;;;;;;;;;4957510;28;20053;-74
2021/11/12 01:21:20;;;;;;;5.40;4.35;;;;;;;;;;4966853;28;20039;-75
2021/11/12 01:23:49;;;;;;;5.03;4.40;;;;;;;;;;4968717;28;20050;-73
2021/11/12 01:26:16;;;;;;;8.38;3.47;;;;;;;;;;4961649;28;20478;-75
2021/11/12 01:28:42;;;;;;;3.72;3.15;;;;;;;;;;4937171;29;20420;-75
2021/11/12 01:31:08;;;;;;;4.18;3.63;;;;;;;;;;4955760;28;20501;-74
2021/11/12 01:33:35;;;;;;;3.42;3.15;;;;;;;;;;4971646;28;20042;-74
2021/11/12 01:36:16;;;;;;;3.25;3.05;;;;;;;;;;4974225;28;20059;-73
2021/11/12 01:38:42;;;;;;;3.92;3.55;;;;;;;;;;4975195;28;20046;-73
2021/11/12 01:41:08;;;;;;;3.95;3.65;;;;;;;;;;4973739;28;20038;-74
2021/11/12 01:43:41;;;;;;;4.05;2.50;;;;;;;;;;4974817;28;20535;-73
2021/11/12 01:53:36;;;;;;;3.75;3.45;;;;;;;;;;4954019;29;20043;-73
2021/11/12 02:01:20;;;;;;;3.67;3.38;;;;;;;;;;4974832;28;20463;-73
2021/11/12 02:03:46;;;;;;;3.97;3.47;;;;;;;;;;4963419;28;20081;-73
2021/11/12 02:06:18;;;;;;;5.45;3.90;;;;;;;;;;4955098;29;20066;-73
2021/11/12 02:08:44;;;;;;;3.65;3.35;;;;;;;;;;4953580;29;20047;-74
2021/11/12 02:11:11;;;;;;;4.72;3.17;;;;;;;;;;4952981;29;20047;-74
2021/11/12 02:13:36;;;;;;;3.22;2.97;;;;;;;;;;4951598;29;20051;-73
2021/11/12 02:16:05;;;;;;;4.28;3.97;;;;;;;;;;4958297;28;20098;-74
2021/11/12 02:18:35;;;;;;;4.40;3.85;;;;;;;;;;4955783;28;20043;-73
2021/11/12 02:21:28;;;;;;;4.07;2.83;;;;;;;;;;4954937;28;20428;-74
2021/11/12 02:24:08;;;;;;;6.00;3.40;;;;;;;;;;4958936;28;20051;-73
2021/11/12 02:26:37;;;;;;;4.38;3.90;;;;;;;;;;4955964;28;20556;-75
2021/11/12 02:29:06;;;;;;;5.28;3.72;;;;;;;;;;4965030;28;20043;-73
2021/11/12 02:31:31;;;;;;;6.45;3.45;;;;;;;;;;4954790;28;20046;-74
2021/11/12 02:34:05;;;;;;;3.53;3.25;;;;;;;;;;4954087;28;20043;-74
2021/11/12 02:36:30;;;;;;;3.67;3.38;;;;;;;;;;4937337;29;20039;-74
2021/11/12 02:38:56;;;;;;;4.35;3.95;;;;;;;;;;4956001;28;20047;-73
2021/11/12 02:41:23;;;;;;;5.03;4.63;;;;;;;;;;4952436;29;20075;-74
2021/11/12 02:43:50;;;;;;;4.55;4.13;;;;;;;;;;4954990;28;20043;-74
2021/11/12 02:46:19;;;;;;;3.90;3.55;;;;;;;;;;4971665;28;20065;-75
2021/11/12 02:48:45;;;;;;;4.20;3.63;;;;;;;;;;4957524;28;20043;-73
2021/11/12 02:51:20;;;;;;;4.72;4.00;;;;;;;;;;4957963;28;20500;-73
2021/11/12 02:53:46;;;;;;;4.63;3.85;;;;;;;;;;4959294;28;20101;-74
2021/11/12 02:56:24;;;;;;;5.13;3.28;;;;;;;;;;4967530;28;20063;-73
2021/11/12 02:58:51;;;;;;;3.55;3.20;;;;;;;;;;4960387;28;20035;-74
2021/11/12 03:01:18;;;;;;;3.65;2.97;;;;;;;;;;4963851;28;20417;-74
2021/11/12 03:03:44;;;;;;;3.47;3.17;;;;;;;;;;4964996;28;20045;-74
2021/11/12 03:06:09;;;;;;;3.42;3.15;;;;;;;;;;4957886;28;20051;-73
2021/11/12 03:08:35;;;;;;;3.10;2.67;;;;;;;;;;4953596;28;20050;-74
2021/11/12 03:11:01;;;;;;;3.67;3.38;;;;;;;;;;4952901;29;20061;-74
2021/11/12 03:13:26;;;;;;;3.92;3.72;;;;;;;;;;4965934;28;20118;-74
2021/11/12 03:15:52;;;;;;;4.00;3.17;;;;;;;;;;4967687;28;20090;-73
2021/11/12 03:18:18;;;;;;;3.58;2.50;;;;;;;;;;4968205;28;20045;-73
2021/11/12 03:20:45;;;;;;;2.70;2.50;;;;;;;;;;4954632;28;20170;-76
2021/11/12 03:23:16;;;;;;;3.05;1.73;;;;;;;;;;4956646;28;20140;-74
2021/11/12 03:26:04;;;;;;;4.63;2.90;;;;;;;;;;4965921;28;20054;-73
2021/11/12 04:01:33;;;;;;;3.90;2.72;;;;;;;;;;4962297;28;20097;-73
2021/11/12 04:39:57;;;;;;;4.00;2.33;;;;;;;;;;4959278;28;20154;-73
2021/11/12 05:10:13;;;;;;;3.15;2.97;;;;;;;;;;4950116;29;20086;-73
2021/11/12 05:12:58;;;;;;;3.20;2.20;;;;;;;;;;4962668;28;20052;-74
2021/11/12 05:45:28;;;;;;;3.30;2.65;;;;;;;;;;4967739;28;20456;-74
2021/11/12 05:51:05;;;;;;;2.22;1.38;;;;;;;;;;4971404;28;20051;-73
2021/11/12 05:56:14;;;;;;;1.38;1.30;;;;;;;;;;4953811;28;20475;-73
2021/11/12 05:58:40;;;;;;;2.72;2.30;;;;;;;;;;4958534;28;20070;-74
2021/11/12 06:01:05;;;;;;;2.97;2.78;;;;;;;;;;4961792;28;20105;-73
2021/11/12 06:03:31;;;;;;;3.78;3.42;;;;;;;;;;4961196;28;20053;-74
2021/11/12 06:05:57;;;;;;;2.97;2.72;;;;;;;;;;4951542;29;20581;-74
2021/11/12 06:08:22;;;;;;;2.13;2.03;;;;;;;;;;4959830;28;20069;-74
2021/11/12 06:10:48;;;;;;;3.22;2.70;;;;;;;;;;4945628;28;20047;-73
2021/11/12 06:13:13;;;;;;;5.40;2.55;;;;;;;;;;4959058;28;20526;-74
2021/11/12 06:15:39;;;;;;;2.42;2.33;;;;;;;;;;4959250;28;20058;-73
2021/11/12 06:18:06;;;;;;;2.72;2.53;;;;;;;;;;4959466;28;20089;-75
2021/11/12 06:20:33;;;;;;;2.65;2.45;;;;;;;;;;4962699;28;20050;-74
2021/11/12 06:22:58;;;;;;;2.58;2.38;;;;;;;;;;4960207;28;20043;-73
2021/11/12 06:25:24;;;;;;;2.65;1.35;;;;;;;;;;4962153;28;20042;-75
2021/11/12 06:27:49;;;;;;;1.50;1.40;;;;;;;;;;4964932;28;20432;-74
2021/11/12 06:30:15;;;;;;;2.38;2.13;;;;;;;;;;4964174;28;20105;-73
2021/11/12 06:32:41;;;;;;;2.72;2.10;;;;;;;;;;4957572;28;20078;-73
2021/11/12 06:35:08;;;;;;;2.65;2.45;;;;;;;;;;4961294;28;20035;-72
2021/11/12 06:37:33;;;;;;;2.65;2.45;;;;;;;;;;4943401;28;20086;-75
2021/11/12 06:40:01;;;;;;;5.05;3.05;;;;;;;;;;4957400;28;20046;-73
2021/11/12 06:42:29;;;;;;;2.75;2.55;;;;;;;;;;4950018;28;20046;-72
2021/11/12 06:50:25;;;;;;;1.40;1.30;;;;;;;;;;4956692;28;20097;-74
2021/11/12 06:52:52;;;;;;;2.35;1.40;;;;;;;;;;4963974;28;20512;-73
2021/11/12 06:55:18;;;;;;;4.15;3.85;;;;;;;;;;4967146;28;20594;-73
2021/11/12 06:57:46;;;;;;;2.20;2.10;;;;;;;;;;4960794;28;20055;-74
2021/11/12 07:00:17;;;;;;;2.90;2.70;;;;;;;;;;4943265;29;20035;-73
2021/11/12 07:02:44;;;;;;;3.03;2.83;;;;;;;;;;4962629;28;20055;-74
2021/11/12 07:05:10;;;;;;;2.28;2.08;;;;;;;;;;4944343;29;20105;-73
2021/11/12 07:07:36;;;;;;;3.15;2.83;;;;;;;;;;4963060;28;20497;-73
2021/11/12 07:10:04;;;;;;;2.42;2.25;;;;;;;;;;4955874;28;20568;-74
2021/11/12 07:12:29;;;;;;;5.20;2.45;;;;;;;;;;4956838;28;20046;-73
2021/11/12 07:14:55;;;;;;;3.80;2.13;;;;;;;;;;4960544;28;20046;-73
2021/11/12 07:17:21;;;;;;;3.05;2.80;;;;;;;;;;4960182;28;20046;-75
2021/11/12 07:19:47;;;;;;;2.08;1.98;;;;;;;;;;4960007;28;20049;-74
2021/11/12 07:22:13;;;;;;;2.30;2.17;;;;;;;;;;4957974;28;20047;-74
2021/11/12 07:24:39;;;;;;;1.17;1.17;;;;;;;;;;4942506;28;20494;-74
2021/11/12 07:27:06;;;;;;;2.45;2.08;;;;;;;;;;4970565;28;20046;-74
2021/11/12 07:29:33;;;;;;;2.33;2.22;;;;;;;;;;4962490;28;20424;-74
2021/11/12 07:31:59;;;;;;;3.53;2.58;;;;;;;;;;4933675;29;20049;-74
2021/11/12 07:34:27;;;;;;;2.53;2.42;;;;;;;;;;4955365;28;20129;-74
2021/11/12 07:36:58;;;;;;;2.08;1.98;;;;;;;;;;4962824;28;20504;-73
2021/11/12 07:47:16;;;;;;;2.10;2.00;;;;;;;;;;4964822;28;20154;-75
2021/11/12 07:49:51;;;;;;;1.08;0.95;;;;;;;;;;4949094;28;20766;-74
2021/11/12 07:52:19;;;;;;;3.47;2.72;;;;;;;;;;4956142;28;20701;-74
2021/11/12 07:54:46;;;;;;;3.85;2.83;;;;;;;;;;4967186;28;20168;-75
2021/11/12 07:57:12;;;;;;;2.50;2.30;;;;;;;;;;4953460;28;20058;-75
2021/11/12 07:59:39;;;;;;;2.30;2.20;;;;;;;;;;4958449;28;20122;-75
2021/11/12 08:02:06;;;;;;;2.67;2.47;;;;;;;;;;4952105;29;20517;-73
2021/11/12 08:04:32;;;;;;;3.10;2.25;;;;;;;;;;4945151;28;20066;-74
2021/11/12 08:07:00;;;;;;;2.75;2.22;;;;;;;;;;4948746;29;20031;-74
2021/11/12 08:09:31;;;;;;;5.50;2.05;;;;;;;;;;4951346;29;20143;-73
2021/11/12 08:12:01;;;;;;;2.08;1.98;;;;;;;;;;4950572;29;20512;-73
2021/11/12 08:14:58;;;;;;;2.17;2.08;;;;;;;;;;4958764;28;20052;-74
2021/11/12 08:17:34;;;;;;;2.67;2.58;;;;;;;;;;4956853;28;20058;-73
2021/11/12 08:22:40;;;;;;;2.08;1.98;;;;;;;;;;4952642;28;20044;-75
2021/11/12 08:25:15;;;;;;;2.20;1.98;;;;;;;;;;4969158;28;20141;-74
2021/11/12 08:43:21;;;;;;;2.55;2.42;;;;;;;;;;4951506;29;20047;-74
2021/11/12 08:48:20;;;;;;;6.07;2.50;;;;;;;;;;4953842;28;20090;-74
2021/11/12 08:50:46;;;;;;;10.15;2.40;;;;;;;;;;4945521;28;20050;-73
2021/11/12 08:53:14;;;;;;;2.05;1.92;;;;;;;;;;4958185;28;20413;-74
2021/11/12 08:55:40;;;;;;;2.25;2.03;;;;;;;;;;4960641;28;20038;-74
2021/11/12 08:58:10;;;;;;;2.25;2.15;;;;;;;;;;4969846;28;20067;-75
2021/11/12 09:00:36;;;;;;;;;;;;;;;;;;4971810;28;20042;-74
2021/11/12 09:03:02;;;;;;;2.20;2.10;;;;;;;;;;4959656;28;19918;-74
2021/11/12 09:05:28;;;;;;;5.32;2.28;;;;;;;;;;4937136;29;20050;-74
2021/11/12 09:07:55;;;;;;;3.03;2.78;;;;;;;;;;4965750;28;20046;-74
2021/11/12 09:10:23;;;;;;;2.13;2.03;;;;;;;;;;4964271;28;20157;-75
2021/11/12 09:12:54;;;;;;;2.20;2.10;;;;;;;;;;4961424;28;20138;-74
2021/11/12 09:15:29;;;;;;;1.30;1.30;;;;;;;;;;4953755;28;20523;-75
2021/11/12 09:17:56;;;;;;;2.35;2.25;;;;;;;;;;4951316;28;20055;-73
2021/11/12 09:20:22;;;;;;;2.25;1.83;;;;;;;;;;4952914;28;20046;-75
2021/11/12 09:22:48;;;;;;;2.65;2.20;;;;;;;;;;4956258;28;20067;-76
2021/11/12 09:25:14;;;;;;;2.20;2.10;;;;;;;;;;4968173;28;20049;-74
2021/11/12 09:27:40;;;;;;;5.90;2.53;;;;;;;;;;4957716;28;20149;-74
2021/11/12 09:30:08;;;;;;;2.63;2.42;;;;;;;;;;4960915;28;20127;-74
2021/11/12 09:32:34;;;;;;;3.15;2.75;;;;;;;;;;4954696;29;20575;-73
2021/11/12 09:34:59;;;;;;;2.03;2.00;;;;;;;;;;4961992;28;20042;-74
2021/11/12 09:37:25;;;;;;;2.33;2.22;;;;;;;;;;4965052;28;20039;-75
2021/11/12 09:39:57;;;;;;;2.45;2.15;;;;;;;;;;4953519;29;20046;-75
2021/11/12 09:42:28;;;;;;;2.10;2.00;;;;;;;;;;4959907;28;20039;-74
2021/11/12 09:44:54;;;;;;;5.47;2.00;;;;;;;;;;4952714;28;20047;-76
2021/11/12 09:47:24;;;;;;;2.38;2.22;;;;;;;;;;4940431;28;20043;-74
2021/11/12 09:49:51;;;;;;;2.28;2.17;;;;;;;;;;4969889;28;20047;-73
2021/11/12 09:52:17;;;;;;;2.30;2.22;;;;;;;;;;4954913;29;20118;-74
2021/11/12 09:54:42;;;;;;;3.63;2.10;;;;;;;;;;4958090;28;20474;-75
2021/11/12 09:57:09;;;;;;;2.35;2.25;;;;;;;;;;4965421;28;20142;-74
2021/11/12 09:59:35;;;;;;;2.90;2.70;;;;;;;;;;4968281;28;20046;-73
2021/11/12 10:02:05;;;;;;;1.55;1.42;;;;;;;;;;4961590;28;20469;-76
2021/11/12 10:04:30;;;;;;;;;;;;;;;;;;4953698;28;20057;-73
2021/11/12 10:06:58;;;;;;;2.28;2.17;;;;;;;;;;4960725;28;20399;-72
2021/11/12 10:09:23;;;;;;;4.38;1.75;;;;;;;;;;4963783;28;20054;-73
2021/11/12 10:11:59;;;;;;;1.73;1.73;;;;;;;;;;4959315;28;20043;-74
2021/11/12 10:14:40;;;;;;;2.13;2.03;;;;;;;;;;4972092;28;20090;-74
2021/11/12 10:17:07;;;;;;;1.98;1.88;;;;;;;;;;4947409;29;20047;-75
2021/11/12 10:19:45;;;;;;;2.10;2.00;;;;;;;;;;4968789;28;20075;-74
2021/11/12 10:22:11;;;;;;;2.05;1.95;;;;;;;;;;4950210;28;20857;-75
2021/11/12 10:24:41;;;;;;;2.25;2.15;;;;;;;;;;4950396;28;20043;-74
2021/11/12 10:27:14;;;;;;;;;;;;;;;;;;4953558;28;20353;-74
2021/11/12 10:29:49;;;;;;;1.98;1.98;;;;;;;;;;4964406;28;19925;-73
2021/11/12 10:32:18;;;;;;;2.42;2.20;;;;;;;;;;4963325;28;20038;-71
2021/11/12 10:34:47;;;;;;;2.00;1.98;;;;;;;;;;4948094;29;20051;-72
2021/11/12 10:37:12;;;;;;;2.05;1.95;;;;;;;;;;4953603;28;20039;-74
2021/11/12 10:39:44;;;;;;;1.85;1.77;;;;;;;;;;4971965;28;20046;-74
2021/11/12 10:42:12;;;;;;;2.45;2.25;;;;;;;;;;4951756;28;20051;-74
2021/11/12 10:44:53;;;;;;;2.13;2.03;;;;;;;;;;4967190;28;20117;-75
2021/11/12 10:47:23;;;;;;;2.65;2.55;;;;;;;;;;4971612;28;20043;-75
2021/11/12 10:49:55;;;;;;;;;;;;;;;;;;4957014;28;20054;-74
2021/11/12 10:52:23;;;;;;;3.22;3.13;;;;;;;;;;4936871;28;20082;-74
2021/11/12 10:54:59;;;;;;;2.22;2.15;;;;;;;;;;4959253;28;20039;-74
2021/11/12 10:57:29;;;;;;;2.42;2.30;;;;;;;;;;4972826;28;20129;-75
2021/11/12 11:00:10;;;;;;;2.05;1.95;;;;;;;;;;4955237;28;20054;-73
2021/11/12 11:02:38;;;;;;;4.47;2.00;;;;;;;;;;4968361;28;20153;-73
2021/11/12 11:05:08;;;;;;;1.80;1.80;;;;;;;;;;4953465;29;20090;-73
2021/11/12 11:07:34;;;;;;;2.15;2.05;;;;;;;;;;4953842;29;20117;-74
2021/11/12 11:10:02;;;;;;;2.30;2.20;;;;;;;;;;4935341;29;20042;-74
2021/11/12 11:12:43;;;;;;;4.38;2.20;;;;;;;;;;4953456;29;20055;-74
2021/11/12 11:15:23;;;;;;;2.20;2.10;;;;;;;;;;4971433;28;20516;-73
2021/11/12 11:18:26;;;;;;;2.20;2.10;;;;;;;;;;4953795;28;20082;-75
2021/11/12 11:20:56;;;;;;;1.48;1.38;;;;;;;;;;4939322;29;20473;-76
2021/11/12 11:23:22;;;;;;;;;;;;;;;;;;4939615;28;20039;-74
2021/11/12 11:26:00;;;;;;;2.28;2.15;;;;;;;;;;4949384;28;19929;-74
2021/11/12 11:28:28;;;;;;;4.60;2.42;;;;;;;;;;4955029;28;20047;-74
2021/11/12 11:30:54;;;;;;;2.03;1.95;;;;;;;;;;4942226;29;20528;-71
2021/11/12 11:33:20;;;;;;;1.90;1.80;;;;;;;;;;4943323;28;20133;-74
2021/11/12 11:35:47;;;;;;;1.83;1.73;;;;;;;;;;4955269;28;20066;-72
2021/11/12 11:38:17;;;;;;;1.95;1.85;;;;;;;;;;4966292;28;20043;-72
2021/11/12 11:40:45;;;;;;;1.70;1.67;;;;;;;;;;4953483;28;20098;-73
2021/11/12 11:43:12;;;;;;;1.80;1.70;;;;;;;;;;4966187;28;20039;-72
2021/11/12 11:45:39;;;;;;;1.48;1.48;;;;;;;;;;4959110;28;20531;-72
2021/11/12 11:48:06;;;;;;;1.33;1.33;;;;;;;;;;4947923;29;20049;-72
2021/11/12 11:50:32;;;;;;;2.63;2.38;;;;;;;;;;4952841;28;20047;-74
2021/11/12 11:53:30;;;;;;;5.15;1.80;;;;;;;;;;4952573;29;20062;-71
2021/11/12 11:56:13;;;;;;;2.00;1.90;;;;;;;;;;4950251;29;20061;-72
2021/11/12 11:58:58;;;;;;;4.40;2.17;;;;;;;;;;4957789;28;20054;-74
2021/11/12 12:01:26;;;;;;;2.42;2.22;;;;;;;;;;4971043;28;20125;-74
2021/11/12 12:04:10;;;;;;;1.95;1.85;;;;;;;;;;4956388;28;20051;-75
2021/11/12 12:06:41;;;;;;;2.58;1.90;;;;;;;;;;4957556;28;20054;-74
2021/11/12 12:09:13;;;;;;;2.30;2.10;;;;;;;;;;4959561;28;20504;-77
2021/11/12 12:11:48;;;;;;;2.15;2.03;;;;;;;;;;4938682;29;20055;-73
2021/11/12 12:14:32;;;;;;;1.77;1.75;;;;;;;;;;4951938;29;20043;-76
2021/11/12 12:17:04;;;;;;;3.47;2.33;;;;;;;;;;4950528;28;20114;-73
2021/11/12 12:34:45;;;;;;;3.58;2.53;;;;;;;;;;4952475;28;20074;-74
2021/11/12 13:25:23;;;;;;;2.17;2.08;;;;;;;;;;4973511;28;20038;-76
2021/11/12 13:27:48;;;;;;;2.55;2.38;;;;;;;;;;4973395;28;20043;-74
2021/11/12 13:30:26;;;;;;;2.88;2.67;;;;;;;;;;4973749;28;20049;-74
2021/11/12 13:32:52;;;;;;;4.47;2.33;;;;;;;;;;4974061;28;20530;-74
2021/11/12 13:35:29;;;;;;;2.65;2.20;;;;;;;;;;4973742;28;20066;-74
2021/11/12 13:37:54;;;;;;;2.47;2.38;;;;;;;;;;4971598;28;20046;-74
2021/11/12 13:40:20;;;;;;;2.88;2.72;;;;;;;;;;4974488;28;20053;-74
2021/11/12 13:42:48;;;;;;;1.10;1.10;;;;;;;;;;4973188;28;20062;-75
2021/11/12 13:45:13;;;;;;;2.20;2.13;;;;;;;;;;4973185;28;20042;-73
2021/11/12 13:47:39;;;;;;;5.63;2.15;;;;;;;;;;4973233;28;20784;-73
2021/11/12 13:50:05;;;;;;;2.90;2.80;;;;;;;;;;4973646;28;20061;-73
2021/11/12 13:52:33;;;;;;;3.47;2.42;;;;;;;;;;4973039;28;20043;-74
2021/11/12 13:55:07;;;;;;;5.85;2.13;;;;;;;;;;4972072;28;20043;-74
2021/11/12 13:57:34;;;;;;;3.13;3.00;;;;;;;;;;4973145;28;20389;-75
2021/11/12 14:00:16;;;;;;;2.97;2.80;;;;;;;;;;4971369;28;20555;-75
2021/11/12 14:03:06;;;;;;;3.63;2.42;;;;;;;;;;4972265;28;20133;-74
2021/11/12 14:05:34;;;;;;;2.15;2.03;;;;;;;;;;4973112;28;20046;-73
2021/11/12 14:08:12;;;;;;;2.42;2.33;;;;;;;;;;4972631;28;20500;-74
2021/11/12 14:10:51;;;;;;;2.35;2.25;;;;;;;;;;4972068;28;20082;-74
2021/11/12 14:13:20;;;;;;;2.42;2.33;;;;;;;;;;4972893;28;20093;-73
2021/11/12 14:16:09;;;;;;;2.35;2.25;;;;;;;;;;4973193;28;20050;-73
2021/11/12 14:18:50;;;;;;;2.38;2.28;;;;;;;;;;4971909;28;20050;-73
2021/11/12 14:26:55;;;;;;;1.92;1.77;;;;;;;;;;4934451;29;20039;-74
2021/11/12 14:49:25;;;;;;;2.92;2.75;;;;;;;;;;4935023;29;20048;-73
2021/11/12 14:54:33;;;;;;;2.22;2.15;;;;;;;;;;4935092;29;20584;-74
2021/11/12 14:57:01;;;;;;;2.28;2.17;;;;;;;;;;4934546;29;20046;-73
2021/11/12 14:59:26;;;;;;;2.35;2.25;;;;;;;;;;4916870;29;20048;-75
2021/11/12 15:01:52;;;;;;;2.42;2.17;;;;;;;;;;4934385;29;21264;-74
2021/11/12 15:04:18;;;;;;;4.82;3.13;;;;;;;;;;4932200;29;20044;-74
2021/11/12 15:06:44;;;;;;;2.50;2.40;;;;;;;;;;4914018;29;20048;-74
2021/11/12 15:09:26;;;;;;;2.80;2.60;;;;;;;;;;4912974;29;20075;-75
2021/11/12 15:11:52;;;;;;;2.47;2.38;;;;;;;;;;4930879;29;20094;-73
2021/11/12 15:14:24;;;;;;;2.88;2.78;;;;;;;;;;4913794;29;20072;-77
2021/11/12 15:16:50;;;;;;;2.63;2.53;;;;;;;;;;4933065;29;20089;-75
2021/11/12 15:19:18;;;;;;;1.67;1.58;;;;;;;;;;4937473;29;20514;-74
2021/11/12 15:24:39;;;;;;;1.90;1.80;;;;;;;;;;4972164;28;20398;-72
2021/11/12 15:29:53;;;;;;;2.67;2.47;;;;;;;;;;4970844;28;20106;-73
2021/11/12 15:32:27;;;;;;;2.50;2.40;;;;;;;;;;4971227;28;20572;-74
2021/11/12 15:34:56;;;;;;;2.80;2.65;;;;;;;;;;4971768;28;20043;-73
2021/11/12 15:40:22;;;;;;;2.92;2.83;;;;;;;;;;4972034;28;20043;-75
2021/11/12 15:48:09;;;;;;;2.83;2.58;;;;;;;;;;4969396;28;20137;-74
2021/11/12 16:27:10;;;;;;;4.50;2.88;;;;;;;;;;4950030;29;20051;-74
2021/11/12 16:29:45;;;;;;;2.45;2.35;;;;;;;;;;4934477;29;20055;-74
2021/11/12 16:32:21;;;;;;;4.82;3.30;;;;;;;;;;4950748;28;20110;-74
2021/11/12 16:34:50;;;;;;;4.60;2.55;;;;;;;;;;4952112;29;20078;-73
2021/11/12 16:37:21;;;;;;;3.05;2.90;;;;;;;;;;4950526;29;20146;-74
2021/11/12 16:39:54;;;;;;;3.05;2.83;;;;;;;;;;4954220;28;20058;-75
2021/11/12 16:44:55;;;;;;;2.45;2.35;;;;;;;;;;4953194;28;20043;-74
2021/11/12 16:50:21;;;;;;;3.83;1.80;;;;;;;;;;4960412;28;20046;-74
2021/11/12 17:05:39;;;;;;;2.70;2.45;;;;;;;;;;4961271;28;20132;-76
2021/11/12 17:18:45;;;;;;;3.05;2.85;;;;;;;;;;4949663;28;20050;-76
2021/11/12 17:48:00;;;;;;;3.08;2.88;;;;;;;;;;4956578;28;20067;-73
2021/11/12 17:50:37;;;;;;;2.50;2.35;;;;;;;;;;4961596;28;20050;-74
2021/11/12 17:53:46;;;;;;;2.60;2.50;;;;;;;;;;4943023;28;20043;-73
2021/11/12 18:04:26;;;;;;;2.95;2.80;;;;;;;;;;4960367;28;20145;-71
2021/11/12 21:46:51;;;;;;;3.97;3.58;;;;;;;;;;4905140;28;20052;-74
2021/11/12 21:49:17;;;;;;;4.55;3.33;;;;;;;;;;4975043;28;20093;-73
2021/11/12 21:51:44;;;;;;;5.68;4.05;;;;;;;;;;4974566;28;20050;-73
2021/11/12 21:54:10;;;;;;;3.40;3.20;;;;;;;;;;4973862;28;20043;-73
2021/11/12 21:56:36;;;;;;;3.75;3.35;;;;;;;;;;4974712;28;20047;-73
2021/11/12 21:59:03;;;;;;;3.45;3.15;;;;;;;;;;4974649;28;20090;-73
2021/11/12 22:01:29;;;;;;;3.75;3.47;;;;;;;;;;4971823;28;20051;-73
2021/11/12 22:03:55;;;;;;;4.60;3.33;;;;;;;;;;4974581;28;20054;-74
2021/11/12 22:06:21;;;;;;;2.00;1.90;;;;;;;;;;4974240;28;20488;-74
2021/11/12 22:08:47;;;;;;;2.80;2.70;;;;;;;;;;4973058;28;20030;-73
2021/11/12 22:11:13;;;;;;;3.95;3.70;;;;;;;;;;4974103;28;20059;-74
2021/11/12 22:13:39;;;;;;;3.20;2.92;;;;;;;;;;4974160;28;20046;-74
2021/11/12 22:16:06;;;;;;;3.92;3.20;;;;;;;;;;4973823;28;20046;-74
2021/11/12 22:18:32;;;;;;;2.33;2.22;;;;;;;;;;4973984;28;20031;-73
2021/11/12 22:20:58;;;;;;;2.97;2.78;;;;;;;;;;4973981;28;20136;-74
2021/11/12 22:23:25;;;;;;;3.13;2.80;;;;;;;;;;4970637;28;20157;-74
2021/11/12 22:25:51;;;;;;;2.97;2.78;;;;;;;;;;4956617;28;20042;-73
2021/11/12 22:28:17;;;;;;;3.05;2.60;;;;;;;;;;4956759;28;20039;-73
2021/11/12 22:30:44;;;;;;;2.30;1.60;;;;;;;;;;4970312;28;20459;-74
2021/11/12 22:33:10;;;;;;;3.60;3.30;;;;;;;;;;4962135;28;20782;-74
2021/11/12 22:35:38;;;;;;;2.97;2.78;;;;;;;;;;4962983;28;20051;-74
2021/11/12 22:38:06;;;;;;;3.20;3.00;;;;;;;;;;4964007;28;20074;-74
2021/11/12 22:40:32;;;;;;;4.78;3.13;;;;;;;;;;4946403;28;20465;-73
2021/11/12 22:42:58;;;;;;;3.00;2.80;;;;;;;;;;4945434;28;20035;-75
2021/11/12 22:45:24;;;;;;;3.00;2.88;;;;;;;;;;4962563;28;20558;-73
2021/11/12 22:47:49;;;;;;;5.25;2.85;;;;;;;;;;4945895;28;20412;-72
2021/11/12 22:50:16;;;;;;;3.45;3.03;;;;;;;;;;4965227;28;20047;-73
2021/11/12 22:52:42;;;;;;;3.13;2.92;;;;;;;;;;4961589;28;20572;-74
2021/11/12 22:55:09;;;;;;;2.97;2.78;;;;;;;;;;4963821;28;20066;-73
2021/11/12 22:57:34;;;;;;;4.35;3.25;;;;;;;;;;4963414;28;20047;-73
2021/11/12 23:00:00;;;;;;;3.85;3.65;;;;;;;;;;4962236;28;20046;-73
2021/11/12 23:02:26;;;;;;;4.25;3.95;;;;;;;;;;4963490;28;20047;-74
2021/11/12 23:04:52;;;;;;;3.40;3.20;;;;;;;;;;4962757;28;20053;-73
2021/11/12 23:07:17;;;;;;;3.72;3.15;;;;;;;;;;4958085;28;20050;-73
2021/11/12 23:09:44;;;;;;;3.28;1.95;;;;;;;;;;4971975;28;20051;-72
2021/11/12 23:12:11;;;;;;;3.28;3.08;;;;;;;;;;4971905;28;20035;-74
2021/11/12 23:14:37;;;;;;;4.18;3.17;;;;;;;;;;4973590;28;20409;-74
2021/11/12 23:17:03;;;;;;;3.75;2.55;;;;;;;;;;4972543;28;20038;-74
2021/11/12 23:19:29;;;;;;;2.92;2.75;;;;;;;;;;4972643;28;20106;-73
2021/11/12 23:21:54;;;;;;;3.92;2.85;;;;;;;;;;4972944;28;20046;-73
2021/11/12 23:24:20;;;;;;;5.35;3.70;;;;;;;;;;4972491;28;20523;-73
2021/11/12 23:26:45;;;;;;;3.13;2.95;;;;;;;;;;4973280;28;20065;-74
2021/11/12 23:29:11;;;;;;;3.75;3.53;;;;;;;;;;4969454;28;20054;-76
2021/11/12 23:31:36;;;;;;;3.60;3.30;;;;;;;;;;4952960;28;20070;-73
2021/11/12 23:34:06;;;;;;;3.00;2.83;;;;;;;;;;4953561;29;20151;-73
2021/11/12 23:36:31;;;;;;;3.35;3.15;;;;;;;;;;4935883;29;20055;-73
2021/11/12 23:38:57;;;;;;;2.95;2.75;;;;;;;;;;4953313;29;20057;-73
2021/11/12 23:41:23;;;;;;;3.90;3.70;;;;;;;;;;4952264;29;20512;-74
2021/11/12 23:43:48;;;;;;;4.10;3.83;;;;;;;;;;4960491;28;20051;-74
2021/11/12 23:46:14;;;;;;;3.10;2.90;;;;;;;;;;4971527;28;20055;-74
2021/11/12 23:48:40;;;;;;;3.95;3.75;;;;;;;;;;4972863;28;20031;-73
2021/11/12 23:51:06;;;;;;;3.33;3.13;;;;;;;;;;4970672;28;20078;-72
2021/11/12 23:53:31;;;;;;;3.20;2.92;;;;;;;;;;4971789;28;20456;-72
2021/11/12 23:55:57;;;;;;;3.75;3.45;;;;;;;;;;4972602;28;20511;-72
2021/11/12 23:58:22;;;;;;;3.97;3.40;;;;;;;;;;4969710;28;20057;-72
